createdAt,value
2023-07-10T00:02:21.026Z,101807.84
2023-07-10T00:04:47.815Z,101812.22
2023-07-10T00:07:14.626Z,101815.34
2023-07-10T00:09:41.746Z,101825.47
2023-07-10T00:12:13.287Z,101817.34
2023-07-10T00:14:40.232Z,101812.72
2023-07-10T00:17:10.451Z,101824.16
2023-07-10T00:19:38.633Z,101821.53
2023-07-10T00:22:05.964Z,101806.53
2023-07-10T00:24:32.801Z,101812.13
2023-07-10T00:26:59.599Z,101812.84
2023-07-10T00:29:32.685Z,101807.47
2023-07-10T00:31:59.974Z,101810.63
2023-07-10T00:34:27.201Z,101806.75
2023-07-10T00:36:55.552Z,101812.84
2023-07-10T00:39:25.258Z,101810.84
2023-07-10T00:41:57.349Z,101811.56
2023-07-10T00:44:29.702Z,101818.03
2023-07-10T00:47:01.249Z,101811.84
2023-07-10T00:49:37.760Z,101817.50
2023-07-10T00:52:14.690Z,101816.16
2023-07-10T00:54:45.481Z,101814.06
2023-07-10T00:57:16.163Z,101812.63
2023-07-10T00:59:43.659Z,101816.16
2023-07-10T01:02:22.885Z,101810.44
2023-07-10T01:04:57.115Z,101812.09
2023-07-10T01:07:27.662Z,101808.44
2023-07-10T01:09:58.326Z,101808.53
2023-07-10T01:12:27.379Z,101809.69
2023-07-10T01:14:54.184Z,101815.00
2023-07-10T01:17:21.219Z,101822.56
2023-07-10T01:19:49.582Z,101824.41
2023-07-10T01:22:17.758Z,101823.22
2023-07-10T01:24:44.606Z,101830.34
2023-07-10T01:27:14.215Z,101830.00
2023-07-10T01:29:45.068Z,101823.22
2023-07-10T01:32:15.278Z,101820.78
2023-07-10T01:34:48.735Z,101823.97
2023-07-10T01:37:17.020Z,101818.22
2023-07-10T01:39:46.335Z,101807.00
2023-07-10T01:42:13.602Z,101811.72
2023-07-10T01:44:42.965Z,101797.94
2023-07-10T01:47:11.659Z,101804.91
2023-07-10T01:49:45.172Z,101812.19
2023-07-10T01:52:14.399Z,101816.28
2023-07-10T01:54:43.077Z,101815.84
2023-07-10T01:57:12.516Z,101813.28
2023-07-10T01:59:39.659Z,101809.47
2023-07-10T02:02:07.456Z,101810.19
2023-07-10T02:04:35.281Z,101807.09
2023-07-10T02:07:02.282Z,101794.91
2023-07-10T02:09:30.896Z,101805.72
2023-07-10T02:11:59.636Z,101805.56
2023-07-10T02:14:26.619Z,101815.84
2023-07-10T02:16:53.582Z,101816.94
2023-07-10T02:19:20.799Z,101817.28
2023-07-10T02:21:47.721Z,101813.47
2023-07-10T02:24:14.723Z,101809.00
2023-07-10T02:26:42.095Z,101808.66
2023-07-10T02:29:10.334Z,101817.13
2023-07-10T02:31:37.430Z,101806.56
2023-07-10T02:34:04.414Z,101811.38
2023-07-10T02:36:31.324Z,101808.09
2023-07-10T02:38:58.584Z,101806.34
2023-07-10T02:41:25.791Z,101812.16
2023-07-10T02:43:52.636Z,101809.34
2023-07-10T02:46:20.906Z,101802.44
2023-07-10T02:48:47.806Z,101813.59
2023-07-10T02:51:14.844Z,101813.72
2023-07-10T02:53:43.301Z,101805.69
2023-07-10T02:56:10.159Z,101807.16
2023-07-10T02:58:37.173Z,101805.88
2023-07-10T03:01:04.635Z,101808.69
2023-07-10T03:03:32.865Z,101817.53
2023-07-10T03:06:02.380Z,101811.78
2023-07-10T03:08:30.619Z,101819.78
2023-07-10T03:11:03.941Z,101815.94
2023-07-10T03:13:31.024Z,101812.78
2023-07-10T03:16:00.575Z,101815.69
2023-07-10T03:18:27.842Z,101818.69
2023-07-10T03:20:56.036Z,101823.19
2023-07-10T03:23:23.058Z,101822.53
2023-07-10T03:25:50.211Z,101825.94
2023-07-10T03:28:17.276Z,101815.38
2023-07-10T03:30:44.377Z,101817.75
2023-07-10T03:33:13.694Z,101824.59
2023-07-10T03:35:40.882Z,101824.59
2023-07-10T03:38:10.094Z,101820.69
2023-07-10T03:40:37.230Z,101824.16
2023-07-10T03:43:04.464Z,101817.28
2023-07-10T03:45:31.811Z,101820.03
2023-07-10T03:47:58.898Z,101826.16
2023-07-10T03:50:25.995Z,101829.78
2023-07-10T03:52:52.854Z,101829.22
2023-07-10T03:55:21.048Z,101834.06
2023-07-10T03:57:47.904Z,101840.63
2023-07-10T04:00:15.528Z,101843.16
2023-07-10T04:02:42.345Z,101843.41
2023-07-10T04:05:09.674Z,101838.47
2023-07-10T04:07:36.780Z,101837.28
2023-07-10T04:10:04.614Z,101839.72
2023-07-10T04:12:32.983Z,101841.16
2023-07-10T04:14:59.945Z,101841.53
2023-07-10T04:17:26.770Z,101840.72
2023-07-10T04:19:54.003Z,101842.28
2023-07-10T04:22:20.790Z,101855.47
2023-07-10T04:24:47.664Z,101849.22
2023-07-10T04:27:14.462Z,101858.13
2023-07-10T04:29:42.696Z,101848.47
2023-07-10T04:32:10.444Z,101859.06
2023-07-10T04:34:37.297Z,101853.50
2023-07-10T04:37:04.490Z,101862.78
2023-07-10T04:39:31.370Z,101856.88
2023-07-10T04:41:58.201Z,101855.31
2023-07-10T04:44:25.279Z,101858.06
2023-07-10T04:46:53.639Z,101865.16
2023-07-10T04:49:21.467Z,101860.66
2023-07-10T04:51:48.530Z,101857.69
2023-07-10T04:54:15.429Z,101851.47
2023-07-10T04:56:42.421Z,101867.13
2023-07-10T04:59:09.548Z,101870.19
2023-07-10T05:01:36.574Z,101867.88
2023-07-10T05:04:05.240Z,101878.88
2023-07-10T05:06:32.147Z,101878.13
2023-07-10T05:09:00.343Z,101878.81
2023-07-10T05:11:28.959Z,101883.41
2023-07-10T05:13:57.170Z,101887.41
2023-07-10T05:16:24.892Z,101883.41
2023-07-10T05:18:51.945Z,101887.31
2023-07-10T05:21:20.461Z,101893.00
2023-07-10T05:23:47.369Z,101891.38
2023-07-10T05:26:16.598Z,101883.34
2023-07-10T05:28:43.684Z,101898.41
2023-07-10T05:31:11.941Z,101900.28
2023-07-10T05:33:40.144Z,101897.47
2023-07-10T05:36:09.132Z,101897.75
2023-07-10T05:38:38.597Z,101898.22
2023-07-10T05:41:05.897Z,101896.28
2023-07-10T05:43:33.912Z,101896.97
2023-07-10T05:46:01.427Z,101900.34
2023-07-10T05:48:29.176Z,101911.38
2023-07-10T05:50:56.892Z,101896.97
2023-07-10T05:53:23.983Z,101911.38
2023-07-10T05:55:54.306Z,101911.31
2023-07-10T05:58:24.426Z,101915.13
2023-07-10T06:00:54.179Z,101918.88
2023-07-10T06:03:21.529Z,101923.41
2023-07-10T06:05:55.901Z,101936.72
2023-07-10T06:08:23.103Z,101937.47
2023-07-10T06:10:49.960Z,101933.66
2023-07-10T06:13:18.298Z,101940.19
2023-07-10T06:15:47.094Z,101943.44
2023-07-10T06:18:14.605Z,101946.16
2023-07-10T06:20:41.637Z,101938.31
2023-07-10T06:23:08.580Z,101937.13
2023-07-10T06:25:35.940Z,101942.41
2023-07-10T06:28:02.766Z,101936.78
2023-07-10T06:30:30.987Z,101942.09
2023-07-10T06:32:57.983Z,101942.38
2023-07-10T06:35:25.030Z,101953.25
2023-07-10T06:37:51.820Z,101946.75
2023-07-10T06:40:18.808Z,101944.63
2023-07-10T06:42:45.677Z,101950.13
2023-07-10T06:45:13.490Z,101936.69
2023-07-10T06:47:43.370Z,101937.66
2023-07-10T06:50:12.708Z,101935.53
2023-07-10T06:52:41.588Z,101936.25
2023-07-10T06:55:12.369Z,101926.94
2023-07-10T06:57:39.309Z,101940.91
2023-07-10T07:00:10.083Z,101935.38
2023-07-10T07:02:37.344Z,101939.44
2023-07-10T07:05:07.091Z,101938.34
2023-07-10T07:07:34.215Z,101944.34
2023-07-10T07:10:01.110Z,101948.06
2023-07-10T07:12:27.977Z,101940.09
2023-07-10T07:14:55.118Z,101943.78
2023-07-10T07:17:21.957Z,101935.47
2023-07-10T07:19:48.803Z,101941.78
2023-07-10T07:22:17.447Z,101935.56
2023-07-10T07:24:44.428Z,101939.25
2023-07-10T07:27:11.304Z,101935.97
2023-07-10T07:29:38.547Z,101937.63
2023-07-10T07:32:06.449Z,101938.31
2023-07-10T07:34:33.297Z,101946.00
2023-07-10T07:37:00.196Z,101948.50
2023-07-10T07:39:32.908Z,101940.19
2023-07-10T07:41:59.624Z,101942.72
2023-07-10T07:44:27.064Z,101946.41
2023-07-10T07:46:53.944Z,101947.09
2023-07-10T07:49:25.057Z,101938.78
2023-07-10T07:51:52.548Z,101943.44
2023-07-10T07:54:19.818Z,101943.44
2023-07-10T07:56:48.213Z,101934.97
2023-07-10T07:59:15.141Z,101931.16
2023-07-10T08:01:42.148Z,101932.28
2023-07-10T08:04:09.396Z,101938.59
2023-07-10T08:06:36.466Z,101931.22
2023-07-10T08:09:04.153Z,101928.28
2023-07-10T08:11:31.027Z,101930.28
2023-07-10T08:13:59.310Z,101922.09
2023-07-10T08:16:26.521Z,101914.41
2023-07-10T08:18:53.376Z,101913.03
2023-07-10T08:21:21.008Z,101913.38
2023-07-10T08:23:47.937Z,101927.72
2023-07-10T08:26:15.221Z,101927.94
2023-07-10T08:28:42.194Z,101928.38
2023-07-10T08:31:10.574Z,101931.97
2023-07-10T08:33:37.705Z,101927.03
2023-07-10T08:36:07.214Z,101924.03
2023-07-10T08:38:35.760Z,101929.09
2023-07-10T08:41:05.570Z,101925.06
2023-07-10T08:43:38.924Z,101931.97
2023-07-10T08:46:09.381Z,101929.91
2023-07-10T08:48:40.946Z,101928.75
2023-07-10T08:51:28.784Z,101932.44
2023-07-10T08:54:01.723Z,101940.66
2023-07-10T08:56:34.271Z,101945.25
2023-07-10T08:59:11.364Z,101934.94
2023-07-10T09:01:42.362Z,101940.94
2023-07-10T09:04:14.982Z,101943.91
2023-07-10T09:06:47.081Z,101933.91
2023-07-10T09:09:35.762Z,101937.78
2023-07-10T09:12:06.694Z,101939.97
2023-07-10T09:14:40.114Z,101951.59
2023-07-10T09:17:20.688Z,101949.22
2023-07-10T09:19:55.138Z,101943.44
2023-07-10T09:22:22.447Z,101933.44
2023-07-10T09:24:49.280Z,101939.38
2023-07-10T09:27:16.370Z,101936.81
2023-07-10T09:29:48.190Z,101929.25
2023-07-10T09:32:17.230Z,101935.69
2023-07-10T09:34:47.687Z,101934.34
2023-07-10T09:37:18.906Z,101926.91
2023-07-10T09:39:45.849Z,101925.97
2023-07-10T09:42:16.288Z,101916.31
2023-07-10T09:44:48.866Z,101921.47
2023-07-10T09:47:16.780Z,101915.75
2023-07-10T09:49:47.558Z,101924.47
2023-07-10T09:52:22.758Z,101916.97
2023-07-10T09:54:50.402Z,101918.28
2023-07-10T09:57:19.030Z,101925.19
2023-07-10T09:59:51.450Z,101920.72
2023-07-10T10:02:22.214Z,101925.75
2023-07-10T10:05:06.890Z,101935.72
2023-07-10T10:07:39.787Z,101934.81
2023-07-10T10:10:22.881Z,101928.16
2023-07-10T10:12:55.737Z,101930.94
2023-07-10T10:15:31.284Z,101933.59
2023-07-10T10:18:03.266Z,101923.91
2023-07-10T10:20:34.384Z,101922.56
2023-07-10T10:23:02.664Z,101913.75
2023-07-10T10:25:37.386Z,101904.97
2023-07-10T10:28:23.278Z,101902.81
2023-07-10T10:30:56.243Z,101891.53
2023-07-10T10:33:31.931Z,101896.97
2023-07-10T10:36:04.010Z,101887.56
2023-07-10T10:38:42.732Z,101894.44
2023-07-10T10:41:32.992Z,101890.00
2023-07-10T10:44:07.133Z,101897.44
2023-07-10T10:46:54.093Z,101882.78
2023-07-10T10:49:42.723Z,101880.00
2023-07-10T10:52:19.894Z,101882.91
2023-07-10T10:54:56.222Z,101878.25
2023-07-10T10:57:36.994Z,101887.59
2023-07-10T11:00:19.861Z,101887.19
2023-07-10T11:03:05.197Z,101883.31
2023-07-10T11:05:37.797Z,101888.16
2023-07-10T11:08:13.154Z,101892.56
2023-07-10T11:10:43.127Z,101897.84
2023-07-10T11:13:20.873Z,101886.59
2023-07-10T11:15:47.863Z,101880.53
2023-07-10T11:18:16.594Z,101887.31
2023-07-10T11:20:43.977Z,101891.34
2023-07-10T11:23:43.190Z,101884.06
2023-07-10T11:26:17.926Z,101877.91
2023-07-10T11:31:37.647Z,101858.56
2023-07-10T11:34:39.096Z,101851.00
2023-07-10T11:37:27.899Z,101851.69
2023-07-10T11:39:56.550Z,101851.47
2023-07-10T11:42:25.445Z,101841.41
2023-07-10T11:45:01.225Z,101844.59
2023-07-10T11:47:30.707Z,101837.56
2023-07-10T11:50:17.220Z,101841.00
2023-07-10T11:52:44.362Z,101825.81
2023-07-10T11:55:24.338Z,101828.06
2023-07-10T11:58:23.959Z,101818.09
2023-07-10T12:00:51.804Z,101817.03
2023-07-10T12:03:18.941Z,101810.81
2023-07-10T12:05:49.784Z,101814.72
2023-07-10T12:08:17.553Z,101819.19
2023-07-10T12:10:47.549Z,101810.16
2023-07-10T12:13:21.093Z,101807.34
2023-07-10T12:15:51.052Z,101810.91
2023-07-10T12:18:22.647Z,101803.19
2023-07-10T12:20:51.533Z,101809.59
2023-07-10T12:23:18.584Z,101808.28
2023-07-10T12:25:50.285Z,101812.66
2023-07-10T12:28:27.070Z,101805.41
2023-07-10T12:30:59.339Z,101805.13
2023-07-10T12:33:33.491Z,101810.72
2023-07-10T12:36:07.328Z,101798.78
2023-07-10T12:38:36.040Z,101792.84
2023-07-10T12:41:03.915Z,101797.00
2023-07-10T12:43:30.765Z,101797.81
2023-07-10T12:46:01.504Z,101796.50
2023-07-10T12:48:33.241Z,101788.88
2023-07-10T12:51:03.936Z,101798.09
2023-07-10T12:53:33.547Z,101793.81
2023-07-10T12:56:09.924Z,101796.47
2023-07-10T12:58:37.960Z,101787.38
2023-07-10T13:01:20.723Z,101791.78
2023-07-10T13:04:00.762Z,101778.34
2023-07-10T13:06:27.682Z,101782.00
2023-07-10T13:08:57.765Z,101778.13
2023-07-10T13:11:40.569Z,101773.75
2023-07-10T13:14:15.300Z,101779.47
2023-07-10T13:16:45.941Z,101786.38
2023-07-10T13:19:12.977Z,101780.69
2023-07-10T13:21:39.819Z,101765.06
2023-07-10T13:24:07.621Z,101765.03
2023-07-10T13:26:34.790Z,101756.84
2023-07-10T13:29:01.596Z,101750.19
2023-07-10T13:31:32.247Z,101761.25
2023-07-10T13:34:00.502Z,101758.19
2023-07-10T13:36:28.186Z,101746.47
2023-07-10T13:38:55.281Z,101755.13
2023-07-10T13:41:24.229Z,101741.94
2023-07-10T13:43:51.863Z,101739.16
2023-07-10T13:46:21.573Z,101746.22
2023-07-10T13:48:50.507Z,101738.78
2023-07-10T13:51:20.337Z,101747.25
2023-07-10T13:53:47.891Z,101747.31
2023-07-10T13:56:17.940Z,101736.41
2023-07-10T13:58:45.775Z,101741.41
2023-07-10T14:01:13.991Z,101736.50
2023-07-10T14:03:42.503Z,101738.78
2023-07-10T14:06:37.539Z,101735.50
2023-07-10T14:09:07.273Z,101742.53
2023-07-10T14:11:34.695Z,101732.78
2023-07-10T14:14:02.386Z,101735.16
2023-07-10T14:16:31.757Z,101731.97
2023-07-10T14:18:59.661Z,101727.44
2023-07-10T14:21:28.041Z,101725.13
2023-07-10T14:23:55.110Z,101727.09
2023-07-10T14:26:24.705Z,101721.88
2023-07-10T14:28:53.102Z,101713.72
2023-07-10T14:31:20.525Z,101716.78
2023-07-10T14:33:47.440Z,101709.22
2023-07-10T14:36:16.692Z,101703.78
2023-07-10T14:38:45.669Z,101703.31
2023-07-10T14:41:14.208Z,101713.00
2023-07-10T14:43:42.946Z,101701.94
2023-07-10T14:46:15.959Z,101702.78
2023-07-10T14:48:43.622Z,101716.28
2023-07-10T14:51:11.363Z,101696.41
2023-07-10T14:53:38.617Z,101702.63
2023-07-10T14:56:13.594Z,101693.19
2023-07-10T14:58:41.256Z,101698.13
2023-07-10T15:01:15.409Z,101697.63
2023-07-10T15:03:42.445Z,101691.34
2023-07-10T15:06:21.599Z,101679.03
2023-07-10T15:08:51.022Z,101673.91
2023-07-10T15:11:20.078Z,101678.63
2023-07-10T15:13:47.089Z,101672.97
2023-07-10T15:16:17.187Z,101673.09
2023-07-10T15:18:44.146Z,101669.06
2023-07-10T15:21:14.748Z,101663.59
2023-07-10T15:23:41.731Z,101656.06
2023-07-10T15:26:08.742Z,101660.53
2023-07-10T15:28:37.533Z,101652.78
2023-07-10T15:31:06.735Z,101657.09
2023-07-10T15:33:36.385Z,101649.22
2023-07-10T15:36:04.431Z,101644.59
2023-07-10T15:38:32.556Z,101648.00
2023-07-10T15:41:01.908Z,101651.41
2023-07-10T15:43:31.439Z,101641.44
2023-07-10T15:46:01.637Z,101655.19
2023-07-10T15:48:29.144Z,101641.63
2023-07-10T15:50:57.942Z,101651.34
2023-07-10T15:53:28.393Z,101644.47
2023-07-10T15:55:55.521Z,101651.09
2023-07-10T15:58:23.870Z,101639.22
2023-07-10T16:00:53.067Z,101632.59
2023-07-10T16:03:27.252Z,101631.19
2023-07-10T16:05:56.473Z,101632.97
2023-07-10T16:08:25.849Z,101623.41
2023-07-10T16:10:59.725Z,101617.50
2023-07-10T16:13:28.324Z,101618.59
2023-07-10T16:15:55.176Z,101615.41
2023-07-10T16:18:28.241Z,101615.38
2023-07-10T16:20:57.168Z,101615.66
2023-07-10T16:23:29.007Z,101605.03
2023-07-10T16:25:55.999Z,101610.19
2023-07-10T16:28:25.170Z,101619.28
2023-07-10T16:30:52.911Z,101617.22
2023-07-10T16:33:22.089Z,101614.97
2023-07-10T16:35:51.446Z,101613.53
2023-07-10T16:38:19.958Z,101606.53
2023-07-10T16:40:49.890Z,101604.00
2023-07-10T16:43:19.454Z,101607.16
2023-07-10T16:45:53.608Z,101617.31
2023-07-10T16:48:23.067Z,101610.94
2023-07-10T16:50:53.512Z,101609.84
2023-07-10T16:53:26.972Z,101606.44
2023-07-10T16:55:54.981Z,101605.91
2023-07-10T16:58:23.501Z,101608.13
2023-07-10T17:00:50.888Z,101607.78
2023-07-10T17:03:21.301Z,101610.09
2023-07-10T17:05:48.307Z,101611.81
2023-07-10T17:08:19.762Z,101611.22
2023-07-10T17:10:47.633Z,101607.44
2023-07-10T17:13:16.897Z,101604.72
2023-07-10T17:15:44.276Z,101604.56
2023-07-10T17:18:16.646Z,101603.19
2023-07-10T17:20:44.539Z,101604.84
2023-07-10T17:23:19.121Z,101609.06
2023-07-10T17:25:47.005Z,101615.06
2023-07-10T17:28:15.580Z,101605.56
2023-07-10T17:30:42.942Z,101607.44
2023-07-10T17:33:37.190Z,101598.53
2023-07-10T17:36:04.928Z,101602.28
2023-07-10T17:38:34.818Z,101604.78
2023-07-10T17:41:02.154Z,101607.22
2023-07-10T17:43:32.210Z,101613.72
2023-07-10T17:46:00.268Z,101608.00
2023-07-10T17:48:27.715Z,101606.63
2023-07-10T17:50:56.513Z,101608.53
2023-07-10T17:53:24.694Z,101604.47
2023-07-10T17:55:58.965Z,101612.28
2023-07-10T17:58:28.016Z,101603.91
2023-07-10T18:00:55.275Z,101612.28
2023-07-10T18:03:26.480Z,101604.97
2023-07-10T18:05:53.605Z,101609.31
2023-07-10T18:08:23.082Z,101606.25
2023-07-10T18:10:56.464Z,101601.63
2023-07-10T18:13:29.275Z,101601.38
2023-07-10T18:15:56.172Z,101598.38
2023-07-10T18:18:23.637Z,101602.56
2023-07-10T18:20:50.483Z,101610.34
2023-07-10T18:23:22.901Z,101599.97
2023-07-10T18:25:53.044Z,101591.09
2023-07-10T18:28:26.980Z,101585.88
2023-07-10T18:30:55.484Z,101590.19
2023-07-10T18:33:24.633Z,101587.94
2023-07-10T18:35:53.673Z,101584.91
2023-07-10T18:38:22.860Z,101580.50
2023-07-10T18:40:53.293Z,101586.22
2023-07-10T18:43:25.338Z,101576.19
2023-07-10T18:45:53.838Z,101584.22
2023-07-10T18:48:30.004Z,101581.75
2023-07-10T18:51:01.580Z,101575.22
2023-07-10T18:53:30.940Z,101568.72
2023-07-10T18:55:57.886Z,101567.97
2023-07-10T18:58:28.030Z,101577.06
2023-07-10T19:00:56.740Z,101573.56
2023-07-10T19:03:24.415Z,101574.53
2023-07-10T19:05:52.873Z,101579.94
2023-07-10T19:08:22.474Z,101566.97
2023-07-10T19:10:49.427Z,101563.31
2023-07-10T19:13:18.712Z,101570.72
2023-07-10T19:15:50.312Z,101569.59
2023-07-10T19:18:20.558Z,101567.56
2023-07-10T19:20:47.978Z,101564.84
2023-07-10T19:23:20.970Z,101561.22
2023-07-10T19:25:49.075Z,101548.59
2023-07-10T19:28:17.444Z,101558.84
2023-07-10T19:30:51.500Z,101554.75
2023-07-10T19:33:24.201Z,101543.72
2023-07-10T19:35:52.490Z,101552.44
2023-07-10T19:38:22.038Z,101543.91
2023-07-10T19:40:49.947Z,101543.97
2023-07-10T19:43:16.843Z,101542.03
2023-07-10T19:45:44.541Z,101542.03
2023-07-10T19:48:16.232Z,101549.47
2023-07-10T19:50:43.782Z,101549.09
2023-07-10T19:53:15.287Z,101547.50
2023-07-10T19:55:42.365Z,101541.81
2023-07-10T19:58:13.406Z,101541.00
2023-07-10T20:00:40.889Z,101542.66
2023-07-10T20:03:15.470Z,101542.28
2023-07-10T20:05:42.926Z,101541.91
2023-07-10T20:08:13.156Z,101539.50
2023-07-10T20:10:39.961Z,101536.22
2023-07-10T20:13:13.079Z,101530.97
2023-07-10T20:15:41.096Z,101530.97
2023-07-10T20:18:19.389Z,101534.19
2023-07-10T20:20:46.980Z,101522.84
2023-07-10T20:23:16.021Z,101525.28
2023-07-10T20:25:43.599Z,101531.38
2023-07-10T20:28:16.730Z,101523.63
2023-07-10T20:30:43.809Z,101525.25
2023-07-10T20:33:14.962Z,101516.72
2023-07-10T20:35:44.245Z,101517.13
2023-07-10T20:38:15.781Z,101504.88
2023-07-10T20:40:42.721Z,101516.66
2023-07-10T20:43:16.506Z,101519.91
2023-07-10T20:45:45.118Z,101511.38
2023-07-10T20:48:21.431Z,101519.06
2023-07-10T20:50:51.333Z,101519.06
2023-07-10T20:53:19.581Z,101522.69
2023-07-10T20:55:49.225Z,101519.47
2023-07-10T20:58:18.840Z,101530.41
2023-07-10T21:00:46.331Z,101523.13
2023-07-10T21:03:15.974Z,101520.31
2023-07-10T21:05:44.078Z,101523.59
2023-07-10T21:08:19.835Z,101517.13
2023-07-10T21:10:47.061Z,101515.50
2023-07-10T21:13:14.724Z,101513.81
2023-07-10T21:15:41.859Z,101507.28
2023-07-10T21:18:13.257Z,101506.09
2023-07-10T21:20:40.511Z,101501.19
2023-07-10T21:23:25.257Z,101504.41
2023-07-10T21:25:52.283Z,101498.28
2023-07-10T21:28:20.727Z,101495.44
2023-07-10T21:30:47.781Z,101487.25
2023-07-10T21:33:18.177Z,101492.53
2023-07-10T21:35:45.288Z,101484.72
2023-07-10T21:38:12.113Z,101483.09
2023-07-10T21:40:42.970Z,101474.94
2023-07-10T21:43:16.002Z,101483.84
2023-07-10T21:45:42.879Z,101478.16
2023-07-10T21:48:15.760Z,101474.03
2023-07-10T21:50:42.704Z,101472.38
2023-07-10T21:53:09.539Z,101467.13
2023-07-10T21:55:36.502Z,101461.00
2023-07-10T21:58:05.465Z,101463.03
2023-07-10T22:00:32.306Z,101468.22
2023-07-10T22:02:59.187Z,101455.22
2023-07-10T22:05:26.236Z,101453.56
2023-07-10T22:07:53.199Z,101449.47
2023-07-10T22:10:20.024Z,101442.53
2023-07-10T22:12:46.854Z,101452.16
2023-07-10T22:15:20.685Z,101441.59
2023-07-10T22:17:47.755Z,101441.59
2023-07-10T22:20:19.280Z,101438.38
2023-07-10T22:22:46.765Z,101439.63
2023-07-10T22:25:15.326Z,101433.91
2023-07-10T22:27:42.163Z,101424.09
2023-07-10T22:30:09.732Z,101435.81
2023-07-10T22:32:38.119Z,101432.94
2023-07-10T22:35:05.711Z,101424.78
2023-07-10T22:37:32.551Z,101426.38
2023-07-10T22:39:59.397Z,101418.66
2023-07-10T22:42:26.412Z,101414.97
2023-07-10T22:44:53.260Z,101419.34
2023-07-10T22:47:20.165Z,101410.00
2023-07-10T22:49:48.334Z,101412.34
2023-07-10T22:52:16.000Z,101409.84
2023-07-10T22:54:42.807Z,101402.94
2023-07-10T22:57:10.549Z,101403.34
2023-07-10T22:59:37.388Z,101389.59
2023-07-10T23:02:04.544Z,101380.69
2023-07-10T23:04:31.396Z,101386.38
2023-07-10T23:07:02.400Z,101386.34
2023-07-10T23:09:29.297Z,101387.50
2023-07-10T23:11:56.176Z,101375.38
2023-07-10T23:14:23.045Z,101379.69
2023-07-10T23:16:49.876Z,101383.78
2023-07-10T23:19:16.834Z,101377.25
2023-07-10T23:21:43.668Z,101369.19
2023-07-10T23:24:12.823Z,101376.91
2023-07-10T23:26:39.654Z,101372.06
2023-07-10T23:29:06.544Z,101359.47
2023-07-10T23:31:34.543Z,101363.50
2023-07-10T23:34:01.403Z,101359.41
2023-07-10T23:36:29.340Z,101360.97
2023-07-10T23:38:57.012Z,101353.75
2023-07-10T23:41:25.346Z,101355.03
2023-07-10T23:43:52.174Z,101351.09
2023-07-10T23:46:18.956Z,101357.63
2023-07-10T23:48:46.142Z,101353.50
2023-07-10T23:51:13.035Z,101349.50
2023-07-10T23:53:40.338Z,101338.16
2023-07-10T23:56:08.845Z,101351.81
2023-07-10T23:58:37.472Z,101346.16
